createdAt,value
2023-05-19T00:01:45.575Z,96.64
2023-05-19T00:04:15.325Z,96.44
2023-05-19T00:06:42.329Z,96.33
2023-05-19T00:09:09.988Z,97.80
2023-05-19T00:11:38.117Z,96.33
2023-05-19T00:14:06.430Z,96.59
2023-05-19T00:16:33.315Z,97.82
2023-05-19T00:19:00.963Z,99.08
2023-05-19T00:21:28.286Z,97.94
2023-05-19T00:23:55.218Z,97.26
2023-05-19T00:26:22.886Z,98.44
2023-05-19T00:28:49.943Z,98.87
2023-05-19T00:31:16.761Z,97.58
2023-05-19T00:33:43.470Z,96.94
2023-05-19T00:36:10.233Z,95.37
2023-05-19T00:38:37.058Z,95.45
2023-05-19T00:41:04.368Z,95.64
2023-05-19T00:43:31.171Z,97.10
2023-05-19T00:45:58.140Z,96.56
2023-05-19T00:48:27.731Z,96.06
2023-05-19T00:50:55.606Z,94.79
2023-05-19T00:53:22.329Z,94.93
2023-05-19T00:55:49.043Z,93.43
2023-05-19T00:58:16.173Z,95.72
2023-05-19T01:00:43.379Z,95.79
2023-05-19T01:03:13.141Z,97.09
2023-05-19T01:05:41.767Z,97.65
2023-05-19T01:08:08.971Z,96.02
2023-05-19T01:10:35.675Z,95.09
2023-05-19T01:13:03.327Z,95.18
2023-05-19T01:15:30.133Z,95.25
2023-05-19T01:18:07.520Z,94.94
2023-05-19T01:20:48.720Z,94.36
2023-05-19T01:23:36.717Z,93.93
2023-05-19T01:26:03.403Z,94.45
2023-05-19T01:28:29.968Z,94.44
2023-05-19T01:30:57.104Z,96.61
2023-05-19T01:33:24.094Z,97.74
2023-05-19T01:35:51.214Z,97.89
2023-05-19T01:38:18.832Z,97.13
2023-05-19T01:40:45.841Z,96.97
2023-05-19T01:43:15.982Z,98.14
2023-05-19T01:45:42.754Z,97.07
2023-05-19T01:48:11.019Z,95.50
2023-05-19T01:50:38.034Z,94.52
2023-05-19T01:53:04.809Z,94.71
2023-05-19T01:55:31.542Z,95.38
2023-05-19T01:58:13.022Z,97.21
2023-05-19T02:00:52.242Z,97.53
2023-05-19T02:03:43.103Z,96.69
2023-05-19T02:06:28.579Z,97.32
2023-05-19T02:09:09.388Z,96.93
2023-05-19T02:11:37.882Z,96.01
2023-05-19T02:14:34.390Z,95.95
2023-05-19T02:17:01.169Z,96.41
2023-05-19T02:19:34.975Z,97.36
2023-05-19T02:22:01.639Z,96.53
2023-05-19T02:24:28.237Z,96.17
2023-05-19T02:26:55.057Z,96.38
2023-05-19T02:29:21.780Z,97.38
2023-05-19T02:31:48.561Z,96.78
2023-05-19T02:34:15.463Z,95.80
2023-05-19T02:36:44.943Z,95.20
2023-05-19T02:39:11.813Z,95.67
2023-05-19T02:41:38.895Z,94.74
2023-05-19T02:44:05.637Z,96.18
2023-05-19T02:46:32.332Z,97.45
2023-05-19T02:48:59.160Z,98.52
2023-05-19T02:51:25.909Z,96.85
2023-05-19T02:53:52.586Z,96.15
2023-05-19T02:56:19.249Z,96.55
2023-05-19T02:58:46.014Z,95.96
2023-05-19T03:01:12.715Z,95.02
2023-05-19T03:03:39.579Z,96.18
2023-05-19T03:06:08.800Z,97.65
2023-05-19T03:08:36.217Z,96.86
2023-05-19T03:11:03.269Z,96.36
2023-05-19T03:13:30.010Z,97.30
2023-05-19T03:15:58.863Z,96.30
2023-05-19T03:18:28.632Z,97.20
2023-05-19T03:20:55.621Z,98.05
2023-05-19T03:23:22.400Z,97.29
2023-05-19T03:25:49.103Z,96.18
2023-05-19T03:28:15.901Z,95.80
2023-05-19T03:30:42.569Z,96.23
2023-05-19T03:33:09.508Z,95.08
2023-05-19T03:35:36.275Z,94.94
2023-05-19T03:38:02.967Z,94.12
2023-05-19T03:40:29.708Z,93.49
2023-05-19T03:42:56.834Z,94.91
2023-05-19T03:45:23.495Z,96.33
2023-05-19T03:47:50.378Z,96.21
2023-05-19T03:50:16.983Z,95.82
2023-05-19T03:52:46.533Z,95.72
2023-05-19T03:55:14.812Z,97.03
2023-05-19T03:57:41.652Z,96.52
2023-05-19T04:00:11.289Z,97.31
2023-05-19T04:02:38.185Z,96.83
2023-05-19T04:05:05.276Z,96.09
2023-05-19T04:07:32.048Z,96.81
2023-05-19T04:09:58.820Z,96.76
2023-05-19T04:12:25.543Z,94.38
2023-05-19T04:14:52.275Z,95.71
2023-05-19T04:17:19.041Z,97.08
2023-05-19T04:19:45.850Z,96.44
2023-05-19T04:22:12.517Z,97.43
2023-05-19T04:24:39.249Z,95.95
2023-05-19T04:27:12.048Z,93.84
2023-05-19T04:29:40.119Z,94.93
2023-05-19T04:32:07.886Z,97.08
2023-05-19T04:34:35.380Z,96.87
2023-05-19T04:37:02.633Z,94.69
2023-05-19T04:39:29.363Z,95.53
2023-05-19T04:41:56.661Z,96.64
2023-05-19T04:44:23.501Z,95.85
2023-05-19T04:46:54.222Z,95.73
2023-05-19T04:49:21.238Z,95.75
2023-05-19T04:51:50.550Z,93.72
2023-05-19T04:54:18.142Z,93.54
2023-05-19T04:56:44.902Z,94.71
2023-05-19T04:59:11.569Z,95.89
2023-05-19T05:01:43.127Z,94.97
2023-05-19T05:04:10.063Z,93.48
2023-05-19T05:06:38.495Z,95.45
2023-05-19T05:09:05.271Z,95.68
2023-05-19T05:11:32.212Z,95.95
2023-05-19T05:13:59.308Z,95.62
2023-05-19T05:16:26.741Z,93.50
2023-05-19T05:18:53.793Z,93.22
2023-05-19T05:21:20.867Z,93.51
2023-05-19T05:23:47.799Z,92.40
2023-05-19T05:26:18.712Z,92.64
2023-05-19T05:28:45.632Z,92.49
2023-05-19T05:31:12.319Z,92.30
2023-05-19T05:33:39.105Z,93.12
2023-05-19T05:36:06.202Z,92.75
2023-05-19T05:38:32.992Z,92.54
2023-05-19T05:41:00.514Z,92.15
2023-05-19T05:43:27.213Z,91.37
2023-05-19T05:45:53.931Z,92.38
2023-05-19T05:48:20.915Z,91.15
2023-05-19T05:50:47.672Z,91.91
2023-05-19T05:53:18.485Z,90.02
2023-05-19T05:55:46.649Z,89.07
2023-05-19T05:58:14.925Z,90.67
2023-05-19T06:00:45.392Z,90.84
2023-05-19T06:03:12.325Z,90.34
2023-05-19T06:05:39.423Z,88.57
2023-05-19T06:08:06.337Z,87.12
2023-05-19T06:10:33.463Z,85.22
2023-05-19T06:13:00.499Z,83.43
2023-05-19T06:15:27.274Z,82.94
2023-05-19T06:17:54.899Z,79.79
2023-05-19T06:20:21.934Z,81.37
2023-05-19T06:22:48.672Z,81.50
2023-05-19T06:25:15.820Z,79.64
2023-05-19T06:27:42.517Z,79.38
2023-05-19T06:30:09.556Z,78.72
2023-05-19T06:32:36.214Z,79.46
2023-05-19T06:35:03.107Z,78.85
2023-05-19T06:37:29.851Z,76.69
2023-05-19T06:39:56.610Z,76.65
2023-05-19T06:42:24.158Z,76.57
2023-05-19T06:44:51.444Z,75.18
2023-05-19T06:47:18.398Z,75.74
2023-05-19T06:49:45.692Z,74.41
2023-05-19T06:52:12.366Z,76.17
2023-05-19T06:54:39.145Z,76.73
2023-05-19T06:57:05.910Z,78.88
2023-05-19T06:59:32.759Z,76.00
2023-05-19T07:01:59.555Z,76.15
2023-05-19T07:04:26.262Z,79.16
2023-05-19T07:06:53.487Z,77.34
2023-05-19T07:09:20.278Z,78.95
2023-05-19T07:11:47.470Z,78.03
2023-05-19T07:14:14.153Z,77.61
2023-05-19T07:16:40.985Z,78.25
2023-05-19T07:19:07.784Z,76.63
2023-05-19T07:21:34.585Z,74.94
2023-05-19T07:24:01.309Z,74.22
2023-05-19T07:26:28.182Z,72.50
2023-05-19T07:28:54.873Z,73.08
2023-05-19T07:31:21.640Z,71.98
2023-05-19T07:33:48.321Z,74.39
2023-05-19T07:36:14.961Z,70.61
2023-05-19T07:38:41.728Z,71.94
2023-05-19T07:41:08.483Z,74.33
2023-05-19T07:43:35.257Z,72.92
2023-05-19T07:46:01.985Z,73.95
2023-05-19T07:48:29.594Z,72.87
2023-05-19T07:50:56.382Z,73.89
2023-05-19T07:53:23.304Z,72.09
2023-05-19T07:55:50.230Z,72.34
2023-05-19T07:58:17.511Z,71.85
2023-05-19T08:00:45.898Z,71.60
2023-05-19T08:03:13.347Z,69.43
2023-05-19T08:05:40.622Z,68.41
2023-05-19T08:08:07.355Z,69.80
2023-05-19T08:10:34.403Z,69.00
2023-05-19T08:13:01.372Z,70.27
2023-05-19T08:15:28.078Z,69.94
2023-05-19T08:17:54.868Z,67.28
2023-05-19T08:20:22.942Z,68.61
2023-05-19T08:22:49.813Z,67.66
2023-05-19T08:25:16.570Z,69.32
2023-05-19T08:27:43.322Z,69.15
2023-05-19T08:30:10.608Z,67.95
2023-05-19T08:32:37.267Z,65.40
2023-05-19T08:35:04.400Z,65.94
2023-05-19T08:37:33.371Z,65.61
2023-05-19T08:40:00.952Z,67.87
2023-05-19T08:42:27.679Z,62.66
2023-05-19T08:44:54.365Z,66.65
2023-05-19T08:47:21.140Z,66.22
2023-05-19T08:49:50.551Z,66.23
2023-05-19T08:52:50.145Z,66.11
2023-05-19T08:55:39.846Z,63.01
2023-05-19T08:58:06.802Z,64.48
2023-05-19T09:00:33.796Z,63.82
2023-05-19T09:03:17.488Z,65.39
2023-05-19T09:05:45.707Z,64.54
2023-05-19T09:08:12.581Z,65.15
2023-05-19T09:10:39.304Z,64.74
2023-05-19T09:13:06.458Z,65.48
2023-05-19T09:15:34.098Z,66.46
2023-05-19T09:18:11.154Z,66.93
2023-05-19T09:20:42.185Z,68.01
2023-05-19T09:23:13.886Z,67.66
2023-05-19T09:25:50.262Z,67.65
2023-05-19T09:28:36.483Z,69.45
2023-05-19T09:31:07.417Z,67.55
2023-05-19T09:33:35.710Z,67.66
2023-05-19T09:36:03.616Z,68.47
2023-05-19T09:38:30.264Z,68.45
2023-05-19T09:40:58.220Z,69.00
2023-05-19T09:43:28.085Z,67.34
2023-05-19T09:46:03.742Z,67.69
2023-05-19T09:48:30.581Z,68.53
2023-05-19T09:50:57.951Z,66.74
2023-05-19T09:53:25.475Z,65.47
2023-05-19T09:55:57.554Z,66.19
2023-05-19T09:58:27.101Z,67.07
2023-05-19T10:00:54.867Z,66.37
2023-05-19T10:03:24.531Z,66.55
2023-05-19T10:05:51.313Z,65.69
2023-05-19T10:08:18.106Z,63.67
2023-05-19T10:10:48.057Z,64.55
2023-05-19T10:13:14.875Z,66.44
2023-05-19T10:15:57.067Z,65.49
2023-05-19T10:18:25.375Z,65.73
2023-05-19T10:20:52.172Z,65.45
2023-05-19T10:23:18.972Z,65.05
2023-05-19T10:25:45.673Z,63.26
2023-05-19T10:28:14.152Z,64.39
2023-05-19T10:30:46.081Z,64.05
2023-05-19T10:33:14.837Z,64.58
2023-05-19T10:36:09.160Z,65.33
2023-05-19T10:38:48.471Z,64.67
2023-05-19T10:41:28.928Z,65.31
2023-05-19T10:44:02.670Z,65.65
2023-05-19T10:46:29.652Z,64.95
2023-05-19T10:48:56.457Z,64.15
2023-05-19T10:51:31.429Z,62.47
2023-05-19T10:53:58.956Z,63.59
2023-05-19T10:56:36.427Z,63.80
2023-05-19T10:59:03.456Z,63.92
2023-05-19T11:01:34.220Z,64.09
2023-05-19T11:04:13.992Z,64.24
2023-05-19T11:06:41.260Z,63.42
2023-05-19T11:09:19.764Z,60.96
2023-05-19T11:11:52.638Z,61.14
2023-05-19T11:14:21.082Z,61.48
2023-05-19T11:16:48.653Z,60.12
2023-05-19T11:19:28.167Z,60.14
2023-05-19T11:21:55.476Z,57.97
2023-05-19T11:24:44.643Z,57.77
2023-05-19T11:27:28.139Z,60.15
2023-05-19T11:29:56.037Z,60.08
2023-05-19T11:32:25.353Z,56.76
2023-05-19T11:34:52.261Z,59.47
2023-05-19T11:37:19.036Z,60.68
2023-05-19T11:39:46.853Z,60.67
2023-05-19T11:42:13.611Z,61.83
2023-05-19T11:44:43.013Z,62.80
2023-05-19T11:47:09.776Z,62.64
2023-05-19T11:49:36.502Z,61.74
2023-05-19T11:52:04.050Z,61.29
2023-05-19T11:54:36.544Z,61.03
2023-05-19T11:57:03.793Z,61.19
2023-05-19T11:59:35.817Z,62.25
2023-05-19T12:02:08.297Z,59.95
2023-05-19T12:04:35.142Z,60.89
2023-05-19T12:07:01.876Z,60.76
2023-05-19T12:09:28.594Z,60.35
2023-05-19T12:11:55.364Z,60.91
2023-05-19T12:14:22.108Z,61.32
2023-05-19T12:16:48.990Z,60.13
2023-05-19T12:19:15.872Z,60.85
2023-05-19T12:21:42.604Z,60.80
2023-05-19T12:24:09.354Z,58.79
2023-05-19T12:26:37.141Z,59.47
2023-05-19T12:29:07.251Z,57.25
2023-05-19T12:31:38.098Z,59.05
2023-05-19T12:34:04.907Z,54.51
2023-05-19T12:36:32.199Z,51.86
2023-05-19T12:38:59.007Z,52.66
2023-05-19T12:41:27.398Z,53.74
2023-05-19T12:43:56.887Z,54.25
2023-05-19T12:46:23.714Z,55.67
2023-05-19T12:48:50.904Z,53.92
2023-05-19T12:51:18.895Z,51.36
2023-05-19T12:53:47.090Z,51.27
2023-05-19T12:56:17.166Z,50.44
2023-05-19T12:58:44.100Z,51.91
2023-05-19T13:01:17.851Z,51.09
2023-05-19T13:03:44.922Z,51.04
2023-05-19T13:06:11.833Z,51.69
2023-05-19T13:08:41.486Z,49.89
2023-05-19T13:11:08.273Z,51.30
2023-05-19T13:13:35.028Z,51.34
2023-05-19T13:16:01.751Z,50.53
2023-05-19T13:18:32.008Z,49.28
2023-05-19T13:20:58.693Z,51.86
2023-05-19T13:23:26.287Z,48.51
2023-05-19T13:25:53.053Z,50.70
2023-05-19T13:28:19.782Z,49.70
2023-05-19T13:30:46.464Z,49.63
2023-05-19T13:33:13.303Z,54.05
2023-05-19T13:35:40.103Z,53.52
2023-05-19T13:38:07.983Z,52.80
2023-05-19T13:40:35.140Z,53.04
2023-05-19T13:43:02.755Z,54.67
2023-05-19T13:45:29.584Z,52.89
2023-05-19T13:47:57.059Z,53.00
2023-05-19T13:50:23.846Z,50.51
2023-05-19T13:52:50.635Z,50.58
2023-05-19T13:55:17.543Z,51.83
2023-05-19T13:57:44.937Z,51.61
2023-05-19T14:00:11.946Z,50.93
2023-05-19T14:02:39.398Z,48.92
2023-05-19T14:05:07.361Z,49.46
2023-05-19T14:07:35.210Z,51.65
2023-05-19T14:10:02.823Z,52.25
2023-05-19T14:12:37.869Z,49.89
2023-05-19T14:15:13.953Z,47.01
2023-05-19T14:17:40.701Z,47.81
2023-05-19T14:20:07.954Z,48.03
2023-05-19T14:22:34.678Z,46.63
2023-05-19T14:25:02.205Z,46.02
2023-05-19T14:27:28.902Z,45.98
2023-05-19T14:29:55.674Z,46.00
2023-05-19T14:32:22.493Z,47.11
2023-05-19T14:34:52.835Z,47.53
2023-05-19T14:37:20.234Z,45.33
2023-05-19T14:39:46.913Z,45.02
2023-05-19T14:42:13.659Z,45.00
2023-05-19T14:44:40.419Z,44.58
2023-05-19T14:47:07.560Z,42.95
2023-05-19T14:49:34.485Z,45.08
2023-05-19T14:52:01.343Z,45.93
2023-05-19T14:54:28.156Z,44.69
2023-05-19T14:56:54.819Z,44.90
2023-05-19T14:59:21.851Z,45.67
2023-05-19T15:01:48.663Z,46.15
2023-05-19T15:04:15.577Z,45.24
2023-05-19T15:06:42.474Z,47.18
2023-05-19T15:09:09.513Z,43.90
2023-05-19T15:11:36.210Z,44.62
2023-05-19T15:14:02.889Z,44.17
2023-05-19T15:16:29.649Z,42.87
2023-05-19T15:18:56.820Z,40.60
2023-05-19T15:21:23.527Z,43.10
2023-05-19T15:23:50.214Z,43.07
2023-05-19T15:26:17.006Z,42.49
2023-05-19T15:28:43.630Z,43.12
2023-05-19T15:31:10.379Z,43.28
2023-05-19T15:33:37.360Z,43.44
2023-05-19T15:36:04.323Z,44.56
2023-05-19T15:38:31.921Z,44.70
2023-05-19T15:40:58.746Z,44.41
2023-05-19T15:43:25.471Z,44.13
2023-05-19T15:45:54.865Z,43.25
2023-05-19T15:48:21.636Z,42.12
2023-05-19T15:50:48.879Z,42.72
2023-05-19T15:53:15.622Z,43.17
2023-05-19T15:55:42.340Z,44.09
2023-05-19T15:58:09.056Z,44.56
2023-05-19T16:00:35.841Z,46.25
2023-05-19T16:03:02.758Z,47.49
2023-05-19T16:05:29.621Z,48.65
2023-05-19T16:07:56.372Z,50.42
2023-05-19T16:10:23.060Z,50.69
2023-05-19T16:12:49.890Z,51.38
2023-05-19T16:15:16.833Z,49.69
2023-05-19T16:17:43.599Z,49.84
2023-05-19T16:20:11.104Z,51.05
2023-05-19T16:22:37.775Z,49.50
2023-05-19T16:25:05.086Z,49.26
2023-05-19T16:27:31.749Z,49.41
2023-05-19T16:29:58.476Z,48.30
2023-05-19T16:32:25.268Z,49.49
2023-05-19T16:34:52.011Z,49.81
2023-05-19T16:37:19.060Z,48.93
2023-05-19T16:39:48.337Z,47.84
2023-05-19T16:42:15.028Z,49.96
2023-05-19T16:44:42.618Z,49.20
2023-05-19T16:47:09.370Z,49.82
2023-05-19T16:49:36.115Z,50.73
2023-05-19T16:52:02.868Z,50.52
2023-05-19T16:54:29.544Z,50.58
2023-05-19T16:56:57.534Z,50.81
2023-05-19T16:59:24.328Z,51.52
2023-05-19T17:01:51.265Z,52.23
2023-05-19T17:04:17.994Z,53.58
2023-05-19T17:06:46.203Z,54.62
2023-05-19T17:09:13.050Z,56.23
2023-05-19T17:11:39.750Z,56.19
2023-05-19T17:14:09.304Z,56.95
2023-05-19T17:16:36.331Z,57.63
2023-05-19T17:19:03.653Z,57.37
2023-05-19T17:21:31.510Z,57.62
2023-05-19T17:23:58.188Z,58.20
2023-05-19T17:26:24.874Z,58.06
2023-05-19T17:28:51.644Z,59.01
2023-05-19T17:31:18.399Z,58.98
2023-05-19T17:33:45.099Z,59.99
2023-05-19T17:36:11.794Z,60.48
2023-05-19T17:38:40.504Z,61.48
2023-05-19T17:41:10.200Z,62.51
2023-05-19T17:43:37.590Z,63.33
2023-05-19T17:46:04.662Z,63.54
2023-05-19T17:48:31.412Z,64.07
2023-05-19T17:50:58.260Z,64.75
2023-05-19T17:53:25.303Z,64.87
2023-05-19T17:55:53.413Z,65.33
2023-05-19T17:58:20.284Z,65.10
2023-05-19T18:00:47.136Z,66.37
2023-05-19T18:03:14.336Z,66.00
2023-05-19T18:05:43.306Z,65.99
2023-05-19T18:08:10.793Z,65.79
2023-05-19T18:10:38.469Z,65.48
2023-05-19T18:13:05.721Z,66.65
2023-05-19T18:15:32.457Z,65.13
2023-05-19T18:17:59.282Z,65.92
2023-05-19T18:20:26.019Z,65.85
2023-05-19T18:22:52.770Z,65.88
2023-05-19T18:25:20.909Z,65.66
2023-05-19T18:27:47.675Z,66.67
2023-05-19T18:30:15.582Z,66.60
2023-05-19T18:32:42.374Z,67.29
2023-05-19T18:35:09.538Z,67.39
2023-05-19T18:37:36.415Z,66.59
2023-05-19T18:40:03.131Z,67.46
2023-05-19T18:42:29.932Z,67.35
2023-05-19T18:44:56.775Z,68.12
2023-05-19T18:47:23.428Z,68.24
2023-05-19T18:49:50.262Z,68.97
2023-05-19T18:52:17.010Z,68.28
2023-05-19T18:54:45.973Z,68.90
2023-05-19T18:57:12.950Z,69.00
2023-05-19T18:59:39.919Z,69.99
2023-05-19T19:02:06.812Z,70.45
2023-05-19T19:04:33.676Z,70.42
2023-05-19T19:07:01.341Z,71.40
2023-05-19T19:09:28.403Z,71.42
2023-05-19T19:11:55.169Z,72.31
2023-05-19T19:14:21.883Z,72.16
2023-05-19T19:16:48.736Z,72.96
2023-05-19T19:19:15.441Z,72.97
2023-05-19T19:21:42.350Z,71.67
2023-05-19T19:24:09.078Z,72.52
2023-05-19T19:26:36.921Z,71.83
2023-05-19T19:29:03.811Z,72.77
2023-05-19T19:31:30.730Z,72.71
2023-05-19T19:34:03.829Z,71.68
2023-05-19T19:36:31.898Z,72.20
2023-05-19T19:38:58.712Z,74.50
2023-05-19T19:41:26.587Z,73.75
2023-05-19T19:43:53.282Z,72.98
2023-05-19T19:46:20.023Z,73.58
2023-05-19T19:48:46.797Z,74.42
2023-05-19T19:51:13.552Z,73.82
2023-05-19T19:53:40.308Z,74.05
2023-05-19T19:56:07.259Z,73.31
2023-05-19T19:58:33.861Z,72.03
2023-05-19T20:01:02.222Z,71.66
2023-05-19T20:03:29.422Z,72.67
2023-05-19T20:05:58.900Z,75.13
2023-05-19T20:08:25.555Z,77.62
2023-05-19T20:10:52.498Z,77.67
2023-05-19T20:13:19.232Z,76.00
2023-05-19T20:15:46.581Z,75.01
2023-05-19T20:18:13.306Z,74.32
2023-05-19T20:20:40.071Z,74.84
2023-05-19T20:23:07.752Z,75.35
2023-05-19T20:25:34.928Z,75.51
2023-05-19T20:28:02.223Z,76.12
2023-05-19T20:30:28.870Z,76.90
2023-05-19T20:32:55.663Z,77.37
2023-05-19T20:35:22.520Z,79.42
2023-05-19T20:37:49.522Z,81.73
2023-05-19T20:40:16.228Z,80.28
2023-05-19T20:42:42.974Z,79.35
2023-05-19T20:45:09.880Z,78.17
2023-05-19T20:47:36.863Z,77.77
2023-05-19T20:50:03.770Z,78.56
2023-05-19T20:52:30.686Z,78.31
2023-05-19T20:54:57.472Z,78.05
2023-05-19T20:57:24.212Z,77.90
2023-05-19T20:59:51.302Z,77.38
2023-05-19T21:02:17.961Z,79.33
2023-05-19T21:04:45.995Z,78.17
2023-05-19T21:07:12.798Z,78.11
2023-05-19T21:09:39.566Z,79.24
2023-05-19T21:12:07.386Z,81.52
2023-05-19T21:14:34.045Z,82.63
2023-05-19T21:17:00.907Z,83.69
2023-05-19T21:19:27.774Z,83.24
2023-05-19T21:21:54.603Z,82.90
2023-05-19T21:24:21.335Z,81.13
2023-05-19T21:26:49.258Z,80.77
2023-05-19T21:29:15.994Z,80.31
2023-05-19T21:31:42.785Z,81.89
2023-05-19T21:34:09.555Z,82.55
2023-05-19T21:36:36.316Z,83.01
2023-05-19T21:39:04.537Z,82.90
2023-05-19T21:41:32.415Z,82.52
2023-05-19T21:43:59.128Z,81.83
2023-05-19T21:46:27.906Z,81.11
2023-05-19T21:48:54.781Z,80.14
2023-05-19T21:51:21.600Z,80.51
2023-05-19T21:53:48.286Z,81.26
2023-05-19T21:56:16.326Z,81.36
2023-05-19T21:58:43.122Z,82.42
2023-05-19T22:01:09.864Z,83.32
2023-05-19T22:03:36.718Z,85.48
2023-05-19T22:06:03.619Z,86.47
2023-05-19T22:08:30.284Z,85.06
2023-05-19T22:10:57.148Z,84.97
2023-05-19T22:13:23.850Z,84.96
2023-05-19T22:15:50.884Z,85.34
2023-05-19T22:18:17.561Z,83.95
2023-05-19T22:20:44.317Z,81.23
2023-05-19T22:23:10.993Z,81.33
2023-05-19T22:25:37.840Z,82.25
2023-05-19T22:28:07.503Z,82.12
2023-05-19T22:30:40.849Z,81.24
2023-05-19T22:33:11.744Z,82.84
2023-05-19T22:35:38.584Z,85.17
2023-05-19T22:38:05.270Z,88.75
2023-05-19T22:40:32.736Z,91.66
2023-05-19T22:42:59.675Z,90.04
2023-05-19T22:45:26.457Z,87.61
2023-05-19T22:47:55.241Z,86.24
2023-05-19T22:50:22.326Z,86.45
2023-05-19T22:52:49.119Z,88.22
2023-05-19T22:55:16.511Z,88.06
2023-05-19T22:57:43.209Z,88.09
2023-05-19T23:00:10.692Z,86.58
2023-05-19T23:02:37.560Z,86.68
2023-05-19T23:05:04.504Z,87.09
2023-05-19T23:07:31.396Z,90.86
2023-05-19T23:09:58.126Z,92.37
2023-05-19T23:12:24.975Z,94.13
2023-05-19T23:14:52.454Z,93.10
2023-05-19T23:17:19.153Z,92.79
2023-05-19T23:19:46.055Z,91.86
2023-05-19T23:22:12.711Z,89.78
2023-05-19T23:24:39.400Z,91.10
2023-05-19T23:27:06.559Z,90.91
2023-05-19T23:29:33.288Z,90.04
2023-05-19T23:32:00.058Z,89.08
2023-05-19T23:34:26.716Z,87.79
2023-05-19T23:36:53.357Z,86.05
2023-05-19T23:39:20.088Z,84.69
2023-05-19T23:41:46.825Z,82.97
2023-05-19T23:44:13.525Z,83.01
2023-05-19T23:46:40.304Z,84.22
2023-05-19T23:49:07.021Z,84.00
2023-05-19T23:51:33.749Z,82.91
2023-05-19T23:54:00.460Z,82.79
2023-05-19T23:56:27.126Z,83.49
2023-05-19T23:58:53.828Z,83.62
